Latest Weather Observations for Mallacoota

IDV60801

Issued at 5:52 pm EST Saturday 22 September 2018 (issued every 10 minutes, with the page automatically refreshed every 10 minutes)

About weather observations | Map of weather stations | Latest weather observations for VIC | Other Formats
Station Details ID: 084084 Name: MALLACOOTA Lat: -37.60 Lon: 149.73 Height: 22.0 m
Data from the previous 72 hours. | See also: Recent months at Mallacoota
Date/Time
EST
Temp
°C
App
Temp
°C
Dew
Point
°C
Rel
Hum
%
Delta-T
°C
Wind Press
QNH
hPa
Press
MSL
hPa
Rain since
9am
mm
Dir  Spd
km/h
Gust
km/h
Spd
kts
Gust
kts
22/05:30pm 13.5 11.8 9.7 78 1.9 SSW 9 13 5 7 1024.4 1024.4 0.0
22/05:00pm 14.1 11.7 10.1 77 2.1 S 13 17 7 9 1024.0 1024.0 0.0
22/04:30pm 14.6 12.3 10.4 76 2.2 S 13 15 7 8 1023.8 1023.8 0.0
22/04:00pm 14.5 12.2 10.3 76 2.2 S 13 17 7 9 1023.7 1023.7 0.0
22/03:30pm 14.4 12.0 10.2 76 2.2 S 13 17 7 9 1023.6 1023.6 0.0
22/03:00pm 14.7 12.6 9.7 72 2.6 S 11 17 6 9 1023.8 1023.8 0.0
22/02:30pm 14.8 11.8 9.4 70 2.8 S 15 20 8 11 1023.9 1023.9 0.0
22/02:00pm 15.5 12.5 9.4 67 3.1 S 15 17 8 9 1024.1 1024.1 0.0
22/01:30pm 15.7 13.9 9.6 67 3.2 SSE 9 13 5 7 1024.2 1024.2 0.0
22/01:00pm 15.7 13.9 9.4 66 3.2 SE 9 11 5 6 1024.4 1024.4 0.0
22/12:30pm 16.3 14.5 9.5 64 3.5 ESE 9 13 5 7 1024.6 1024.6 0.0
22/12:00pm 16.3 14.6 9.7 65 3.4 E 9 13 5 7 1025.0 1025.0 0.0
22/11:30am 15.9 13.8 9.8 67 3.2 E 11 13 6 7 1025.1 1025.1 0.0
22/11:00am 17.6 15.0 7.9 53 4.9 E 11 13 6 7 1025.2 1025.2 0.0
22/10:30am 17.3 14.7 7.6 53 4.9 ENE 11 13 6 7 1025.6 1025.6 0.0
22/10:00am 17.0 15.0 8.7 58 4.2 ENE 9 13 5 7 1025.8 1025.8 0.0
22/09:30am 16.3 14.3 7.0 54 4.6 N 7 13 4 7 1026.1 1026.1 0.0
22/09:00am 15.4 13.3 8.2 62 3.6 NNW 9 15 5 8 1026.3 1026.3 0.0
22/08:30am 14.0 12.1 9.2 73 2.4 NW 9 13 5 7 1026.4 1026.4 0.0
22/08:00am 12.1 10.4 9.7 85 1.2 WNW 9 11 5 6 1026.5 1026.5 0.0
22/07:30am 9.7 7.2 8.1 90 0.8 NW 11 15 6 8 1026.3 1026.3 0.0
22/07:00am 8.1 5.3 6.9 92 0.6 WNW 11 15 6 8 1026.3 1026.3 0.0
22/06:30am 6.7 3.2 5.5 92 0.5 WNW 13 17 7 9 1026.4 1026.4 0.0
22/06:00am 6.2 2.6 5.0 92 0.5 WNW 13 17 7 9 1026.3 1026.3 0.0
22/05:30am 6.1 2.1 4.9 92 0.5 WNW 15 19 8 10 1026.1 1026.1 0.0
22/05:00am 6.1 2.9 4.9 92 0.5 WNW 11 15 6 8 1025.7 1025.7 0.0
22/04:30am 6.5 3.0 5.3 92 0.5 WNW 13 17 7 9 1025.7 1025.7 0.0
22/04:00am 6.5 3.0 5.3 92 0.5 WNW 13 15 7 8 1025.8 1025.8 0.0
22/03:30am 6.7 3.2 5.5 92 0.5 WNW 13 15 7 8 1025.8 1025.8 0.0
22/03:00am 6.8 3.7 5.4 91 0.6 WNW 11 15 6 8 1025.8 1025.8 0.0
22/02:30am 6.7 3.5 5.3 91 0.6 WNW 11 15 6 8 1026.1 1026.1 0.0
22/02:00am 7.1 3.7 5.7 91 0.6 WNW 13 15 7 8 1026.5 1026.5 0.0
22/01:30am 7.3 4.3 5.9 91 0.6 WNW 11 15 6 8 1026.9 1026.9 0.0
22/01:00am 7.4 4.4 5.9 90 0.7 WNW 11 15 6 8 1026.9 1026.9 0.0
22/12:30am 7.7 4.7 6.2 90 0.7 WNW 11 15 6 8 1027.2 1027.2 0.0
22/12:00am 7.8 4.9 6.3 90 0.7 WNW 11 13 6 7 1027.4 1027.4 0.0
 
Date/Time
EST
Temp
°C
App
Temp
°C
Dew
Point
°C
Rel
Hum
%
Delta-T
°C
Wind Press
QNH
hPa
Press
MSL
hPa
Rain since
9am
mm
Dir  Spd
km/h
Gust
km/h
Spd
kts
Gust
kts
21/11:30pm 8.1 5.2 6.6 90 0.7 WNW 11 15 6 8 1027.3 1027.3 0.0
21/11:00pm 7.7 4.7 6.0 89 0.8 WNW 11 13 6 7 1027.5 1027.5 0.0
21/10:30pm 8.8 6.1 7.3 90 0.7 W 11 13 6 7 1027.7 1027.7 0.0
21/10:00pm 8.1 5.2 6.6 90 0.7 WNW 11 13 6 7 1027.8 1027.8 0.0
21/09:30pm 8.5 5.7 7.0 90 0.7 WNW 11 13 6 7 1027.7 1027.7 0.0
21/09:00pm 8.1 5.5 6.2 88 0.9 WNW 9 11 5 6 1027.6 1027.6 0.0
21/08:30pm 8.5 6.0 6.6 88 0.9 WNW 9 11 5 6 1027.6 1027.6 0.0
21/08:00pm 9.2 6.8 7.2 87 0.9 W 9 11 5 6 1027.4 1027.4 0.0
21/07:30pm 9.1 7.2 6.9 86 1.0 WNW 6 7 3 4 1027.0 1027.0 0.0
21/07:00pm 9.5 7.6 6.9 84 1.2 W 6 7 3 4 1026.8 1026.8 0.0
21/06:30pm 10.3 9.7 7.4 82 1.4 CALM 0 0 0 0 1026.4 1026.4 0.0
21/06:00pm 11.9 10.8 8.4 79 1.7 SSW 4 6 2 3 1026.1 1026.1 0.0
21/05:30pm 13.0 10.7 8.9 76 2.1 S 11 13 6 7 1025.8 1025.8 0.0
21/05:00pm 14.3 13.5 9.7 74 2.4 ESE 4 7 2 4 1025.3 1025.3 0.0
21/04:30pm 13.8 11.7 9.6 76 2.2 S 11 19 6 10 1025.1 1025.1 0.0
21/04:00pm 13.9 10.5 9.3 74 2.3 S 17 26 9 14 1024.8 1024.8 0.0
21/03:30pm 14.1 9.7 9.1 72 2.5 S 22 30 12 16 1024.3 1024.3 0.0
21/03:00pm 14.4 10.6 9.2 71 2.6 S 19 30 10 16 1024.2 1024.2 0.0
21/02:30pm 14.4 9.6 9.0 70 2.7 S 24 33 13 18 1024.1 1024.1 0.0
21/02:00pm 14.6 9.9 9.2 70 2.7 S 24 35 13 19 1024.2 1024.2 0.0
21/01:30pm 14.9 10.2 9.1 68 3.0 S 24 35 13 19 1024.3 1024.3 0.0
21/01:00pm 15.5 11.8 9.4 67 3.1 S 19 32 10 17 1024.5 1024.5 0.0
21/12:30pm 13.9 9.0 8.5 70 2.7 S 24 33 13 18 1024.8 1024.8 0.0
21/12:00pm 14.5 11.0 8.7 68 2.9 S 17 26 9 14 1025.3 1025.3 0.0
21/11:30am 15.7 12.1 10.0 69 3.0 S 19 32 10 17 1025.7 1025.7 0.0
21/11:00am 14.5 10.6 8.7 68 2.9 S 19 28 10 15 1025.9 1025.9 0.0
21/10:30am 17.2 13.7 7.0 51 5.1 SSW 15 24 8 13 1026.0 1026.0 0.0
21/10:00am 15.8 12.6 6.8 55 4.4 SW 13 24 7 13 1026.2 1026.2 0.0
21/09:30am 15.3 11.7 6.6 56 4.2 WSW 15 24 8 13 1026.4 1026.4 0.0
21/09:00am 15.2 12.0 6.7 57 4.1 WSW 13 20 7 11 1026.5 1026.5 0.0
21/08:30am 13.5 10.3 5.2 57 3.9 WNW 11 19 6 10 1026.2 1026.2 0.0
21/08:00am 11.4 7.7 4.4 62 3.1 WNW 13 19 7 10 1026.0 1026.0 0.0
21/07:30am 10.0 6.2 3.7 65 2.8 WNW 13 19 7 10 1025.8 1025.8 0.0
21/07:00am 7.2 4.2 4.0 80 1.4 NW 9 15 5 8 1025.6 1025.6 0.0
21/06:30am 5.1 1.4 2.3 82 1.1 NW 11 13 6 7 1025.2 1025.2 0.0
21/06:00am 4.1 0.3 1.6 84 1.0 WNW 11 13 6 7 1024.8 1024.8 0.0
21/05:30am 3.9 0.4 1.3 83 1.0 WNW 9 13 5 7 1024.3 1024.3 0.0
21/05:00am 5.2 1.5 2.2 81 1.2 WNW 11 15 6 8 1024.0 1024.0 0.0
21/04:30am 4.9 1.1 1.9 81 1.2 NW 11 13 6 7 1023.7 1023.7 0.0
21/04:00am 5.5 1.7 1.8 77 1.5 WNW 11 17 6 9 1023.5 1023.5 0.0
21/03:30am 6.1 2.5 2.7 79 1.4 NW 11 15 6 8 1023.5 1023.5 0.0
21/03:00am 5.6 2.3 2.6 81 1.2 WNW 9 15 5 8 1023.3 1023.3 0.0
21/02:30am 5.7 2.1 2.7 81 1.2 NW 11 15 6 8 1023.4 1023.4 0.0
21/02:00am 5.6 2.2 2.1 78 1.4 NW 9 11 5 6 1023.6 1023.6 0.0
21/01:30am 7.2 3.7 3.3 76 1.6 WNW 11 15 6 8 1023.8 1023.8 0.0
21/01:00am 7.2 4.0 3.1 75 1.7 WNW 9 13 5 7 1023.8 1023.8 0.0
21/12:30am 7.7 4.2 3.4 74 1.8 WNW 11 15 6 8 1023.9 1023.9 0.0
21/12:00am 7.8 4.4 4.0 77 1.6 WNW 11 15 6 8 1023.9 1023.9 0.0
 
Date/Time
EST
Temp
°C
App
Temp
°C
Dew
Point
°C
Rel
Hum
%
Delta-T
°C
Wind Press
QNH
hPa
Press
MSL
hPa
Rain since
9am
mm
Dir  Spd
km/h
Gust
km/h
Spd
kts
Gust
kts
20/11:30pm 7.1 4.1 3.9 80 1.4 NW 9 13 5 7 1023.8 1023.8 0.0
20/11:00pm 7.3 4.3 3.9 79 1.5 WNW 9 13 5 7 1023.9 1023.9 0.0
20/10:30pm 7.8 4.9 4.4 79 1.5 WNW 9 11 5 6 1023.9 1023.9 0.0
20/10:00pm 8.3 5.4 4.5 77 1.7 WNW 9 15 5 8 1023.8 1023.8 0.0
20/09:30pm 8.9 6.0 4.7 75 1.9 WNW 9 15 5 8 1023.7 1023.7 0.0
20/09:00pm 8.6 5.6 4.0 73 2.0 WNW 9 13 5 7 1023.4 1023.4 0.0
20/08:30pm 8.8 5.8 4.0 72 2.1 WNW 9 15 5 8 1023.0 1023.0 0.0
20/08:00pm 9.0 5.6 4.0 71 2.2 WNW 11 17 6 9 1022.6 1022.6 0.0
20/07:30pm 8.9 6.2 3.7 70 2.3 WNW 7 11 4 6 1022.3 1022.3 0.0
20/07:00pm 9.2 6.5 3.6 68 2.4 WNW 7 7 4 4 1021.9 1021.9 0.0
20/06:30pm 10.3 7.7 4.0 65 2.8 W 7 9 4 5 1021.7 1021.7 0.0
20/06:00pm 11.1 8.1 3.9 61 3.2 SW 9 11 5 6 1021.4 1021.4 0.0
20/05:30pm 12.2 8.5 4.2 58 3.6 SW 13 19 7 10 1020.7 1020.7 0.0
20/05:00pm 13.2 8.7 4.4 55 4.0 SSW 17 28 9 15 1020.6 1020.6 0.0
20/04:30pm 14.0 9.0 3.5 49 4.7 SSW 19 32 10 17 1020.3 1020.3 0.0
20/04:00pm 14.4 8.7 2.9 46 5.1 SW 22 33 12 18 1019.7 1019.7 0.0
20/03:30pm 14.3 8.7 3.5 48 4.9 SW 22 46 12 25 1019.8 1019.8 0.0
20/03:00pm 14.7 8.7 3.5 47 5.1 SSW 24 39 13 21 1019.7 1019.7 0.0
20/02:30pm 15.0 9.1 3.8 47 5.1 SSW 24 39 13 21 1019.6 1019.6 0.0
20/02:00pm 14.3 8.6 5.1 54 4.3 SSW 24 39 13 21 1019.2 1019.2 0.0
20/01:30pm 14.6 8.9 4.9 52 4.5 SSW 24 41 13 22 1019.2 1019.2 0.0
20/01:00pm 14.4 8.8 5.5 55 4.2 SSW 24 37 13 20 1019.1 1019.1 0.0
20/12:30pm 15.2 11.0 1.4 39 6.0 WSW 13 24 7 13 1019.0 1019.0 0.0
20/12:00pm 15.2 10.2 1.4 39 6.0 WSW 17 30 9 16 1019.0 1019.0 0.0
20/11:30am 14.2 9.2 1.2 41 5.6 WSW 17 24 9 13 1019.4 1019.4 0.0
20/11:00am 13.3 7.7 1.3 44 5.1 SW 20 33 11 18 1019.5 1019.5 0.0
20/10:30am 14.1 8.8 1.7 43 5.4 SW 19 33 10 18 1019.4 1019.4 0.0
20/10:00am 13.2 8.7 2.4 48 4.7 WSW 15 28 8 15 1019.6 1019.6 0.0
20/09:30am 13.7 9.1 3.5 50 4.6 WSW 17 28 9 15 1019.5 1019.5 0.0
20/09:00am 11.9 7.9 4.9 62 3.2 SW 15 24 8 13 1019.6 1019.6 0.4
20/08:30am 10.8 7.0 4.0 63 3.0 WSW 13 20 7 11 1019.3 1019.3 0.4
20/08:00am 10.7 7.0 4.6 66 2.7 W 13 24 7 13 1019.0 1019.0 0.4
20/07:30am 9.7 5.6 4.1 68 2.5 W 15 24 8 13 1018.5 1018.5 0.4
20/07:00am 9.0 4.4 3.8 70 2.3 WNW 17 24 9 13 1018.0 1018.0 0.4
20/06:30am 7.8 4.0 3.7 75 1.8 WNW 13 22 7 12 1017.7 1017.7 0.4
20/06:00am 7.0 3.1 3.3 77 1.6 W 13 19 7 10 1017.4 1017.4 0.4
20/05:30am 6.9 2.9 3.0 76 1.6 W 13 20 7 11 1017.1 1017.1 0.4
20/05:00am 7.3 4.1 3.0 74 1.8 W 9 20 5 11 1016.8 1016.8 0.4
20/04:30am 7.6 3.7 3.3 74 1.8 W 13 24 7 13 1016.5 1016.5 0.4
20/04:00am 7.6 3.6 3.1 73 1.9 W 13 26 7 14 1016.5 1016.5 0.4
20/03:30am 7.9 3.6 3.4 73 1.9 W 15 26 8 14 1016.1 1016.1 0.4
20/03:00am 7.7 3.4 3.2 73 1.9 W 15 24 8 13 1016.1 1016.1 0.4
20/02:30am 7.3 3.7 3.0 74 1.8 W 11 20 6 11 1016.3 1016.3 0.4
20/02:00am 7.3 3.3 2.8 73 1.9 WNW 13 17 7 9 1016.3 1016.3 0.4
20/01:30am 7.7 4.1 3.0 72 2.0 WNW 11 20 6 11 1016.4 1016.4 0.4
20/01:00am 7.9 3.9 3.0 71 2.1 W 13 22 7 12 1016.5 1016.5 0.4
20/12:30am 8.1 4.2 3.2 71 2.1 W 13 24 7 13 1016.4 1016.4 0.4
20/12:00am 8.0 4.1 3.3 72 2.0 WSW 13 22 7 12 1016.2 1016.2 0.4
 
Date/Time
EST
Temp
°C
App
Temp
°C
Dew
Point
°C
Rel
Hum
%
Delta-T
°C
Wind Press
QNH
hPa
Press
MSL
hPa
Rain since
9am
mm
Dir  Spd
km/h
Gust
km/h
Spd
kts
Gust
kts
19/11:30pm 7.8 3.8 3.1 72 2.0 W 13 19 7 10 1016.2 1016.2 0.4
19/11:00pm 7.6 3.6 3.1 73 1.9 WNW 13 19 7 10 1016.1 1016.1 0.4
19/10:30pm 7.4 3.8 2.9 73 1.9 WNW 11 17 6 9 1015.9 1015.9 0.4
19/10:00pm 7.2 3.9 2.5 72 1.9 NW 9 13 5 7 1015.8 1015.8 0.4
19/09:30pm 8.3 5.1 3.2 70 2.2 W 9 13 5 7 1015.7 1015.7 0.4
19/09:00pm 8.5 4.9 3.1 69 2.3 W 11 17 6 9 1015.4 1015.4 0.4
19/08:30pm 8.9 5.7 3.3 68 2.4 W 9 13 5 7 1015.2 1015.2 0.4
19/08:00pm 9.1 5.9 3.3 67 2.5 WSW 9 13 5 7 1015.0 1015.0 0.4
19/07:30pm 9.5 6.3 3.0 64 2.8 WSW 9 17 5 9 1014.6 1014.6 0.4
19/07:00pm 9.9 6.3 3.2 63 2.9 WSW 11 19 6 10 1014.2 1014.2 0.4
19/06:30pm 10.4 6.1 3.4 62 3.1 SW 15 28 8 15 1013.8 1013.8 0.4
19/06:00pm 10.7 6.0 3.3 60 3.2 SW 17 30 9 16 1013.3 1013.3 0.4

Other Formats:

Comma delimited format used in spreadsheet applications
http://www.bom.gov.au/fwo/IDV60801/IDV60801.94935.axf

JavaScript Object Notation format (JSON) in row-major order
http://www.bom.gov.au/fwo/IDV60801/IDV60801.94935.json